createdAt,value
2019-05-22T00:01:39.054Z,12.30
2019-05-22T00:04:12.336Z,12.20
2019-05-22T00:06:42.603Z,12.10
2019-05-22T00:09:16.346Z,12.00
2019-05-22T00:11:48.333Z,12.00
2019-05-22T00:14:17.125Z,11.90
2019-05-22T00:16:47.002Z,11.90
2019-05-22T00:19:17.592Z,11.90
2019-05-22T00:21:49.934Z,12.00
2019-05-22T00:24:19.626Z,11.90
2019-05-22T00:26:52.233Z,11.90
2019-05-22T00:29:22.035Z,11.80
2019-05-22T00:31:50.993Z,11.90
2019-05-22T00:34:20.857Z,11.90
2019-05-22T00:36:50.183Z,11.80
2019-05-22T00:39:20.928Z,11.70
2019-05-22T00:41:51.524Z,11.60
2019-05-22T00:44:21.272Z,11.60
2019-05-22T00:46:51.550Z,11.60
2019-05-22T00:49:22.404Z,11.50
2019-05-22T00:52:04.528Z,11.50
2019-05-22T00:54:41.522Z,11.50
2019-05-22T00:57:14.604Z,11.40
2019-05-22T00:59:45.265Z,11.50
2019-05-22T01:02:16.959Z,11.50
2019-05-22T01:04:47.059Z,11.50
2019-05-22T01:07:18.950Z,11.40
2019-05-22T01:09:52.666Z,11.40
2019-05-22T01:12:43.785Z,11.30
2019-05-22T01:15:15.382Z,11.30
2019-05-22T01:17:44.999Z,11.20
2019-05-22T01:20:19.810Z,11.20
2019-05-22T01:22:51.532Z,11.10
2019-05-22T01:25:24.877Z,11.10
2019-05-22T01:27:53.536Z,11.10
2019-05-22T01:30:24.440Z,11.10
2019-05-22T01:32:54.937Z,11.10
2019-05-22T01:35:29.085Z,11.00
2019-05-22T01:38:00.062Z,11.00
2019-05-22T01:40:36.082Z,10.90
2019-05-22T01:43:09.613Z,10.90
2019-05-22T01:45:40.087Z,10.90
2019-05-22T01:48:11.814Z,11.00
2019-05-22T01:50:48.429Z,11.00
2019-05-22T01:53:22.700Z,10.90
2019-05-22T01:56:00.601Z,10.90
2019-05-22T01:58:31.009Z,10.90
2019-05-22T02:01:00.612Z,10.80
2019-05-22T02:03:30.974Z,10.80
2019-05-22T02:06:00.942Z,10.70
2019-05-22T02:08:30.581Z,10.80
2019-05-22T02:11:00.130Z,10.80
2019-05-22T02:13:42.326Z,10.80
2019-05-22T02:16:11.574Z,10.80
2019-05-22T02:18:43.625Z,10.70
2019-05-22T02:21:12.541Z,10.70
2019-05-22T02:23:42.914Z,10.60
2019-05-22T02:26:11.593Z,10.50
2019-05-22T02:28:41.888Z,10.40
2019-05-22T02:31:13.851Z,10.30
2019-05-22T02:34:00.123Z,10.20
2019-05-22T02:36:29.582Z,10.10
2019-05-22T02:38:59.327Z,10.00
2019-05-22T02:41:35.518Z,9.90
2019-05-22T02:44:06.006Z,9.90
2019-05-22T02:46:34.661Z,9.80
2019-05-22T02:49:05.136Z,9.80
2019-05-22T02:51:33.712Z,9.80
2019-05-22T02:54:03.982Z,9.70
2019-05-22T02:56:34.043Z,9.70
2019-05-22T02:59:06.907Z,9.80
2019-05-22T03:01:37.381Z,9.80
2019-05-22T03:04:06.865Z,9.80
2019-05-22T03:06:36.400Z,9.80
2019-05-22T03:09:08.213Z,9.80
2019-05-22T03:11:42.582Z,9.80
2019-05-22T03:14:13.203Z,9.80
2019-05-22T03:16:51.514Z,9.90
2019-05-22T03:19:39.415Z,9.90
2019-05-22T03:22:27.678Z,9.90
2019-05-22T03:24:58.972Z,9.90
2019-05-22T03:27:40.230Z,10.00
2019-05-22T03:30:12.529Z,10.00
2019-05-22T03:32:43.896Z,10.00
2019-05-22T03:35:13.426Z,10.10
2019-05-22T03:37:43.417Z,10.10
2019-05-22T03:40:12.995Z,10.10
2019-05-22T03:42:43.047Z,10.10
2019-05-22T03:45:15.081Z,10.10
2019-05-22T03:47:44.431Z,10.00
2019-05-22T03:50:16.694Z,10.00
2019-05-22T03:52:45.013Z,10.00
2019-05-22T03:55:40.638Z,10.00
2019-05-22T03:58:11.165Z,9.90
2019-05-22T04:00:43.528Z,9.90
2019-05-22T04:03:13.233Z,9.90
2019-05-22T04:05:43.059Z,9.90
2019-05-22T04:08:13.531Z,9.80
2019-05-22T04:10:58.002Z,9.80
2019-05-22T04:13:29.134Z,9.80
2019-05-22T04:15:59.746Z,9.80
2019-05-22T04:18:29.736Z,9.80
2019-05-22T04:21:01.092Z,9.80
2019-05-22T04:23:30.294Z,9.80
2019-05-22T04:26:01.977Z,9.80
2019-05-22T04:28:32.114Z,9.90
2019-05-22T04:31:02.063Z,9.90
2019-05-22T04:33:31.875Z,9.90
2019-05-22T04:36:02.103Z,9.90
2019-05-22T04:38:33.749Z,10.00
2019-05-22T04:41:06.035Z,10.00
2019-05-22T04:43:37.009Z,10.00
2019-05-22T04:46:08.485Z,10.00
2019-05-22T04:48:38.284Z,10.10
2019-05-22T04:51:25.638Z,10.10
2019-05-22T04:53:55.915Z,10.20
2019-05-22T04:56:26.068Z,10.20
2019-05-22T04:58:56.036Z,10.20
2019-05-22T05:01:25.694Z,10.20
2019-05-22T05:03:54.819Z,10.30
2019-05-22T05:06:24.341Z,10.30
2019-05-22T05:08:54.504Z,10.40
2019-05-22T05:11:23.617Z,10.40
2019-05-22T05:13:52.808Z,10.50
2019-05-22T05:16:22.027Z,10.60
2019-05-22T05:18:51.585Z,10.60
2019-05-22T05:21:20.755Z,10.70
2019-05-22T05:23:49.695Z,10.80
2019-05-22T05:26:19.237Z,10.80
2019-05-22T05:28:48.841Z,11.00
2019-05-22T05:31:18.818Z,11.10
2019-05-22T05:33:59.726Z,11.10
2019-05-22T05:36:29.118Z,11.20
2019-05-22T05:38:59.738Z,11.20
2019-05-22T05:41:30.178Z,11.40
2019-05-22T05:43:59.880Z,11.50
2019-05-22T05:46:29.046Z,11.60
2019-05-22T05:48:58.396Z,11.70
2019-05-22T05:51:29.288Z,11.90
2019-05-22T05:54:07.481Z,12.00
2019-05-22T05:56:39.418Z,12.10
2019-05-22T05:59:09.455Z,12.10
2019-05-22T06:01:40.842Z,12.20
2019-05-22T06:04:10.191Z,12.30
2019-05-22T06:06:42.215Z,12.30
2019-05-22T06:09:17.192Z,12.40
2019-05-22T06:11:55.541Z,12.50
2019-05-22T06:14:31.515Z,12.50
2019-05-22T06:17:08.164Z,12.40
2019-05-22T06:19:43.920Z,12.50
2019-05-22T06:22:15.750Z,12.60
2019-05-22T06:25:04.357Z,12.80
2019-05-22T06:27:35.555Z,13.00
2019-05-22T06:30:10.606Z,13.10
2019-05-22T06:33:10.830Z,13.10
2019-05-22T06:35:42.585Z,13.10
2019-05-22T06:38:14.823Z,13.20
2019-05-22T06:40:46.544Z,13.20
2019-05-22T06:43:21.981Z,13.40
2019-05-22T06:45:51.069Z,13.50
2019-05-22T06:48:20.097Z,13.70
2019-05-22T06:50:49.611Z,13.70
2019-05-22T06:53:19.746Z,13.80
2019-05-22T06:55:49.780Z,13.80
2019-05-22T06:58:19.841Z,13.80
2019-05-22T07:00:49.472Z,13.80
2019-05-22T07:03:19.042Z,13.80
2019-05-22T07:05:49.462Z,13.80
2019-05-22T07:08:19.058Z,13.90
2019-05-22T07:10:49.320Z,14.00
2019-05-22T07:13:20.139Z,14.00
2019-05-22T07:15:50.472Z,14.00
2019-05-22T07:18:21.387Z,14.10
2019-05-22T07:20:50.985Z,14.20
2019-05-22T07:23:25.279Z,14.50
2019-05-22T07:25:54.307Z,14.70
2019-05-22T07:28:24.279Z,14.90
2019-05-22T07:30:53.855Z,14.90
2019-05-22T07:33:24.027Z,15.10
2019-05-22T07:36:08.643Z,15.10
2019-05-22T07:38:24.631Z,15.10
2019-05-22T07:40:55.823Z,15.20
2019-05-22T07:43:25.569Z,15.30
2019-05-22T07:45:57.541Z,15.50
2019-05-22T07:48:26.983Z,15.60
2019-05-22T07:50:57.195Z,15.80
2019-05-22T07:53:26.712Z,16.00
2019-05-22T07:55:56.548Z,16.20
2019-05-22T07:58:27.903Z,16.30
2019-05-22T08:00:58.854Z,16.40
2019-05-22T08:03:27.758Z,16.60
2019-05-22T08:05:58.004Z,16.80
2019-05-22T08:08:28.019Z,17.00
2019-05-22T08:10:58.202Z,17.20
2019-05-22T08:13:27.894Z,17.10
2019-05-22T08:15:57.453Z,17.20
2019-05-22T08:18:28.380Z,17.00
2019-05-22T08:20:57.852Z,16.80
2019-05-22T08:23:28.295Z,16.90
2019-05-22T08:25:59.455Z,17.00
2019-05-22T08:28:30.849Z,16.90
2019-05-22T08:31:01.098Z,16.90
2019-05-22T08:33:30.725Z,17.20
2019-05-22T08:36:00.814Z,17.30
2019-05-22T08:38:31.573Z,17.50
2019-05-22T08:41:04.055Z,17.80
2019-05-22T08:43:56.021Z,18.10
2019-05-22T08:46:06.109Z,18.50
2019-05-22T08:48:36.560Z,19.00
2019-05-22T08:51:07.730Z,19.20
2019-05-22T08:53:46.574Z,19.30
2019-05-22T08:56:09.247Z,19.50
2019-05-22T08:58:40.015Z,20.30
2019-05-22T09:01:10.819Z,20.70
2019-05-22T09:03:42.850Z,21.10
2019-05-22T09:06:12.184Z,21.50
2019-05-22T09:08:41.469Z,22.30
2019-05-22T09:11:11.530Z,23.20
2019-05-22T09:13:41.570Z,23.50
2019-05-22T09:16:10.807Z,23.20
2019-05-22T09:18:40.093Z,23.00
2019-05-22T09:21:12.077Z,23.30
2019-05-22T09:23:42.378Z,24.10
2019-05-22T09:26:11.533Z,24.80
2019-05-22T09:28:42.449Z,25.30
2019-05-22T09:31:11.529Z,25.70
2019-05-22T09:33:40.566Z,25.80
2019-05-22T09:36:10.005Z,26.00
2019-05-22T09:38:39.688Z,25.70
2019-05-22T09:41:09.313Z,25.70
2019-05-22T09:43:38.505Z,25.70
2019-05-22T09:46:08.592Z,25.50
2019-05-22T09:48:37.708Z,25.20
2019-05-22T09:51:06.880Z,25.10
2019-05-22T09:53:37.730Z,25.50
2019-05-22T09:56:07.132Z,25.80
2019-05-22T09:58:36.654Z,25.80
2019-05-22T10:01:10.947Z,24.00
2019-05-22T10:03:38.266Z,23.30
2019-05-22T10:06:08.486Z,23.80
2019-05-22T10:08:37.825Z,24.40
2019-05-22T10:11:07.001Z,24.90
2019-05-22T10:13:36.619Z,24.60
2019-05-22T10:16:06.550Z,24.00
2019-05-22T10:18:35.974Z,24.20
2019-05-22T10:21:08.347Z,24.30
2019-05-22T10:23:37.490Z,23.60
2019-05-22T10:26:06.534Z,22.80
2019-05-22T10:28:36.535Z,22.20
2019-05-22T10:31:07.861Z,22.10
2019-05-22T10:33:38.863Z,23.20
2019-05-22T10:36:08.806Z,24.60
2019-05-22T10:38:38.122Z,25.50
2019-05-22T10:41:08.007Z,26.00
2019-05-22T10:43:38.258Z,26.50
2019-05-22T10:46:08.378Z,27.10
2019-05-22T10:48:40.170Z,27.20
2019-05-22T10:51:08.642Z,27.30
2019-05-22T10:53:38.460Z,27.00
2019-05-22T10:56:09.371Z,27.30
2019-05-22T10:58:38.841Z,27.70
2019-05-22T11:01:10.601Z,27.70
2019-05-22T11:03:42.003Z,27.30
2019-05-22T11:06:12.442Z,27.70
2019-05-22T11:08:42.191Z,27.40
2019-05-22T11:11:11.613Z,27.20
2019-05-22T11:13:58.107Z,27.10
2019-05-22T11:16:12.852Z,26.90
2019-05-22T11:18:42.662Z,26.80
2019-05-22T11:21:12.957Z,26.70
2019-05-22T11:23:51.993Z,26.20
2019-05-22T11:26:12.813Z,26.00
2019-05-22T11:28:42.828Z,26.50
2019-05-22T11:31:13.799Z,26.20
2019-05-22T11:33:43.267Z,26.50
2019-05-22T11:36:13.291Z,26.90
2019-05-22T11:38:42.847Z,27.30
2019-05-22T11:41:13.197Z,27.60
2019-05-22T11:43:42.863Z,26.50
2019-05-22T11:46:12.341Z,25.50
2019-05-22T11:48:41.646Z,25.90
2019-05-22T11:51:11.633Z,26.40
2019-05-22T11:53:41.086Z,26.50
2019-05-22T11:56:10.269Z,26.20
2019-05-22T11:58:39.519Z,25.60
2019-05-22T12:01:12.008Z,25.00
2019-05-22T12:03:43.696Z,25.30
2019-05-22T12:06:13.527Z,25.40
2019-05-22T12:08:42.656Z,25.90
2019-05-22T12:11:15.969Z,25.20
2019-05-22T12:13:47.454Z,24.70
2019-05-22T12:16:17.499Z,25.10
2019-05-22T12:18:47.072Z,25.80
2019-05-22T12:21:16.776Z,25.20
2019-05-22T12:23:46.042Z,26.00
2019-05-22T12:26:15.268Z,27.00
2019-05-22T12:28:44.684Z,27.90
2019-05-22T12:31:14.748Z,27.90
2019-05-22T12:33:44.303Z,27.60
2019-05-22T12:36:15.205Z,27.80
2019-05-22T12:38:43.586Z,27.70
2019-05-22T12:41:13.493Z,26.30
2019-05-22T12:43:44.945Z,26.00
2019-05-22T12:46:15.401Z,25.90
2019-05-22T12:48:45.980Z,25.60
2019-05-22T12:51:15.567Z,26.50
2019-05-22T12:53:45.578Z,26.10
2019-05-22T12:56:15.137Z,25.50
2019-05-22T12:58:45.158Z,25.10
2019-05-22T13:01:15.303Z,26.10
2019-05-22T13:03:44.730Z,27.30
2019-05-22T13:06:13.950Z,28.70
2019-05-22T13:08:43.823Z,29.60
2019-05-22T13:11:13.874Z,30.20
2019-05-22T13:13:43.666Z,29.50
2019-05-22T13:16:13.561Z,28.00
2019-05-22T13:18:44.046Z,27.10
2019-05-22T13:21:15.666Z,26.40
2019-05-22T13:23:46.000Z,26.60
2019-05-22T13:26:17.777Z,26.80
2019-05-22T13:28:48.453Z,27.20
2019-05-22T13:31:19.292Z,27.50
2019-05-22T13:33:47.917Z,28.10
2019-05-22T13:36:18.816Z,28.90
2019-05-22T13:38:50.924Z,29.30
2019-05-22T13:41:20.105Z,29.80
2019-05-22T13:43:51.019Z,30.50
2019-05-22T13:46:22.835Z,28.50
2019-05-22T13:48:52.048Z,27.90
2019-05-22T13:51:21.508Z,27.30
2019-05-22T13:53:51.774Z,26.80
2019-05-22T13:56:25.220Z,26.40
2019-05-22T13:58:54.313Z,27.80
2019-05-22T14:01:24.013Z,29.00
2019-05-22T14:03:54.322Z,28.90
2019-05-22T14:06:24.033Z,29.40
2019-05-22T14:08:54.322Z,30.20
2019-05-22T14:11:27.502Z,29.90
2019-05-22T14:13:57.155Z,29.80
2019-05-22T14:16:26.342Z,30.50
2019-05-22T14:18:57.753Z,30.40
2019-05-22T14:21:29.444Z,30.50
2019-05-22T14:23:58.551Z,31.40
2019-05-22T14:26:29.877Z,32.40
2019-05-22T14:28:58.682Z,31.90
2019-05-22T14:31:29.609Z,30.80
2019-05-22T14:33:59.752Z,30.60
2019-05-22T14:36:30.941Z,29.60
2019-05-22T14:39:00.648Z,28.70
2019-05-22T14:41:29.857Z,29.00
2019-05-22T14:43:58.918Z,29.50
2019-05-22T14:46:29.213Z,29.60
2019-05-22T14:48:58.291Z,29.80
2019-05-22T14:51:27.527Z,30.10
2019-05-22T14:53:57.521Z,29.60
2019-05-22T14:56:26.560Z,28.50
2019-05-22T14:58:56.106Z,28.70
2019-05-22T15:01:26.866Z,29.30
2019-05-22T15:03:56.171Z,29.50
2019-05-22T15:06:26.955Z,29.60
2019-05-22T15:08:56.085Z,29.80
2019-05-22T15:11:25.515Z,29.20
2019-05-22T15:13:54.591Z,29.20
2019-05-22T15:16:24.249Z,29.60
2019-05-22T15:18:53.854Z,29.60
2019-05-22T15:21:23.836Z,29.80
2019-05-22T15:23:55.838Z,29.80
2019-05-22T15:26:25.400Z,29.00
2019-05-22T15:28:55.613Z,29.00
2019-05-22T15:31:26.033Z,28.90
2019-05-22T15:33:55.939Z,29.00
2019-05-22T15:36:25.768Z,28.90
2019-05-22T15:38:55.221Z,28.30
2019-05-22T15:41:28.263Z,26.80
2019-05-22T15:43:58.669Z,26.00
2019-05-22T15:46:29.413Z,26.20
2019-05-22T15:48:59.794Z,26.30
2019-05-22T15:51:32.105Z,26.20
2019-05-22T15:54:03.907Z,26.20
2019-05-22T15:56:38.270Z,26.00
2019-05-22T15:59:10.305Z,25.60
2019-05-22T16:01:41.206Z,24.90
2019-05-22T16:04:12.796Z,24.30
2019-05-22T16:06:42.326Z,24.10
2019-05-22T16:09:14.262Z,24.00
2019-05-22T16:11:44.851Z,23.80
2019-05-22T16:14:17.435Z,23.70
2019-05-22T16:16:49.344Z,23.60
2019-05-22T16:19:19.958Z,23.00
2019-05-22T16:21:51.546Z,22.70
2019-05-22T16:24:20.849Z,22.50
2019-05-22T16:26:51.523Z,22.60
2019-05-22T16:29:24.157Z,22.80
2019-05-22T16:31:54.251Z,22.90
2019-05-22T16:34:23.829Z,23.00
2019-05-22T16:36:53.266Z,23.00
2019-05-22T16:39:25.183Z,22.90
2019-05-22T16:41:54.885Z,22.80
2019-05-22T16:44:24.628Z,22.80
2019-05-22T16:46:54.274Z,22.70
2019-05-22T16:49:23.805Z,22.60
2019-05-22T16:51:52.875Z,22.50
2019-05-22T16:54:22.370Z,22.40
2019-05-22T16:56:52.629Z,22.30
2019-05-22T16:59:21.948Z,22.30
2019-05-22T17:01:59.573Z,22.20
2019-05-22T17:04:22.397Z,22.20
2019-05-22T17:06:52.060Z,22.10
2019-05-22T17:09:21.750Z,22.00
2019-05-22T17:11:52.857Z,21.90
2019-05-22T17:14:23.901Z,21.80
2019-05-22T17:16:53.086Z,21.50
2019-05-22T17:19:26.996Z,21.20
2019-05-22T17:21:54.165Z,21.00
2019-05-22T17:24:24.433Z,21.10
2019-05-22T17:26:53.840Z,21.30
2019-05-22T17:29:23.258Z,21.60
2019-05-22T17:31:55.361Z,21.70
2019-05-22T17:34:34.739Z,21.90
2019-05-22T17:37:08.353Z,22.00
2019-05-22T17:39:39.851Z,21.90
2019-05-22T17:42:11.089Z,21.80
2019-05-22T17:44:40.169Z,21.80
2019-05-22T17:47:10.811Z,21.70
2019-05-22T17:49:40.205Z,21.60
2019-05-22T17:52:12.330Z,21.60
2019-05-22T17:54:44.747Z,21.60
2019-05-22T17:57:14.166Z,21.50
2019-05-22T17:59:43.680Z,21.50
2019-05-22T18:02:14.226Z,21.40
2019-05-22T18:04:43.403Z,21.40
2019-05-22T18:07:12.805Z,21.20
2019-05-22T18:09:42.102Z,21.10
2019-05-22T18:12:11.557Z,21.00
2019-05-22T18:14:40.800Z,20.90
2019-05-22T18:17:10.114Z,20.70
2019-05-22T18:19:45.174Z,20.60
2019-05-22T18:22:15.206Z,20.40
2019-05-22T18:24:45.622Z,20.10
2019-05-22T18:27:14.971Z,19.90
2019-05-22T18:29:44.267Z,19.60
2019-05-22T18:32:13.834Z,19.50
2019-05-22T18:34:42.972Z,19.40
2019-05-22T18:37:12.188Z,19.20
2019-05-22T18:39:41.475Z,19.10
2019-05-22T18:42:11.180Z,19.00
2019-05-22T18:44:40.159Z,18.80
2019-05-22T18:47:10.309Z,18.60
2019-05-22T18:49:40.152Z,18.50
2019-05-22T18:52:09.734Z,18.40
2019-05-22T18:54:38.854Z,18.30
2019-05-22T18:57:08.138Z,18.10
2019-05-22T18:59:38.393Z,18.00
2019-05-22T19:02:09.351Z,17.80
2019-05-22T19:04:38.720Z,17.70
2019-05-22T19:07:07.907Z,17.60
2019-05-22T19:09:37.109Z,17.60
2019-05-22T19:12:06.576Z,17.50
2019-05-22T19:14:35.745Z,17.50
2019-05-22T19:17:05.342Z,17.40
2019-05-22T19:19:36.922Z,17.30
2019-05-22T19:22:06.090Z,17.20
2019-05-22T19:24:35.236Z,17.10
2019-05-22T19:27:04.248Z,17.00
2019-05-22T19:29:33.470Z,16.90
2019-05-22T19:32:02.486Z,16.80
2019-05-22T19:34:31.638Z,16.70
2019-05-22T19:37:00.587Z,16.70
2019-05-22T19:39:30.570Z,16.60
2019-05-22T19:42:04.071Z,16.40
2019-05-22T19:44:30.030Z,16.40
2019-05-22T19:46:59.137Z,16.30
2019-05-22T19:49:28.412Z,16.30
2019-05-22T19:51:58.042Z,16.20
2019-05-22T19:54:26.800Z,16.20
2019-05-22T19:56:55.501Z,16.10
2019-05-22T19:59:24.447Z,16.00
2019-05-22T20:01:53.090Z,16.00
2019-05-22T20:04:22.031Z,16.00
2019-05-22T20:06:51.348Z,15.90
2019-05-22T20:09:20.954Z,15.80
2019-05-22T20:11:49.737Z,15.80
2019-05-22T20:14:18.775Z,15.70
2019-05-22T20:16:47.687Z,15.60
2019-05-22T20:19:16.573Z,15.60
2019-05-22T20:21:45.585Z,15.60
2019-05-22T20:24:14.858Z,15.50
2019-05-22T20:26:43.631Z,15.40
2019-05-22T20:29:14.364Z,15.30
2019-05-22T20:31:43.233Z,15.20
2019-05-22T20:34:12.439Z,15.20
2019-05-22T20:36:41.629Z,15.20
2019-05-22T20:39:12.589Z,15.20
2019-05-22T20:41:42.837Z,15.10
2019-05-22T20:44:12.116Z,15.00
2019-05-22T20:46:41.503Z,15.00
2019-05-22T20:49:12.339Z,14.90
2019-05-22T20:51:42.041Z,14.80
2019-05-22T20:54:11.546Z,14.70
2019-05-22T20:56:44.610Z,14.80
2019-05-22T20:59:14.589Z,14.80
2019-05-22T21:01:43.246Z,14.80
2019-05-22T21:04:14.156Z,14.70
2019-05-22T21:06:54.805Z,14.70
2019-05-22T21:09:23.599Z,14.60
2019-05-22T21:11:53.896Z,14.60
2019-05-22T21:14:23.899Z,14.60
2019-05-22T21:16:53.638Z,14.60
2019-05-22T21:19:23.931Z,14.60
2019-05-22T21:21:53.888Z,14.60
2019-05-22T21:24:23.328Z,14.60
2019-05-22T21:26:52.209Z,14.50
2019-05-22T21:29:21.241Z,14.50
2019-05-22T21:31:51.228Z,14.40
2019-05-22T21:34:21.711Z,14.30
2019-05-22T21:36:50.700Z,14.20
2019-05-22T21:39:20.061Z,14.10
2019-05-22T21:41:49.366Z,14.10
2019-05-22T21:44:18.285Z,14.10
2019-05-22T21:46:47.113Z,14.10
2019-05-22T21:49:16.080Z,14.10
2019-05-22T21:51:44.705Z,14.10
2019-05-22T21:54:15.092Z,14.10
2019-05-22T21:56:44.527Z,14.00
2019-05-22T21:59:13.910Z,13.90
2019-05-22T22:01:45.977Z,13.90
2019-05-22T22:04:19.170Z,13.90
2019-05-22T22:06:49.310Z,13.90
2019-05-22T22:09:19.726Z,13.80
2019-05-22T22:11:49.512Z,13.80
2019-05-22T22:14:18.529Z,13.80
2019-05-22T22:16:47.798Z,13.80
2019-05-22T22:19:18.457Z,13.70
2019-05-22T22:21:47.786Z,13.70
2019-05-22T22:24:16.677Z,13.70
2019-05-22T22:26:45.691Z,13.70
2019-05-22T22:29:15.068Z,13.70
2019-05-22T22:31:46.106Z,13.70
2019-05-22T22:34:20.837Z,13.70
2019-05-22T22:36:49.815Z,13.70
2019-05-22T22:39:21.774Z,13.60
2019-05-22T22:41:51.343Z,13.60
2019-05-22T22:44:21.485Z,13.50
2019-05-22T22:46:52.470Z,13.40
2019-05-22T22:49:21.490Z,13.40
2019-05-22T22:51:53.351Z,13.40
2019-05-22T22:54:22.220Z,13.40
2019-05-22T22:56:51.278Z,13.40
2019-05-22T22:59:20.027Z,13.40
2019-05-22T23:01:52.558Z,13.40
2019-05-22T23:04:25.459Z,13.30
2019-05-22T23:06:56.749Z,13.20
2019-05-22T23:09:27.023Z,13.20
2019-05-22T23:11:57.712Z,13.20
2019-05-22T23:14:27.879Z,13.20
2019-05-22T23:16:57.286Z,13.10
2019-05-22T23:19:38.527Z,13.10
2019-05-22T23:22:06.043Z,13.10
2019-05-22T23:24:37.938Z,13.10
2019-05-22T23:27:07.040Z,13.10
2019-05-22T23:29:37.008Z,13.10
2019-05-22T23:32:08.796Z,13.00
2019-05-22T23:34:38.880Z,12.90
2019-05-22T23:37:09.631Z,12.90
2019-05-22T23:39:40.159Z,12.80
2019-05-22T23:42:15.571Z,12.70
2019-05-22T23:44:46.307Z,12.70
2019-05-22T23:47:15.516Z,12.70
2019-05-22T23:49:44.145Z,12.60
2019-05-22T23:52:14.482Z,12.60
2019-05-22T23:54:44.922Z,12.60
2019-05-22T23:57:15.161Z,12.60
2019-05-22T23:59:46.152Z,12.50
